createdAt,value
2017-09-12T00:01:36.293Z,99.50
2017-09-12T00:04:03.813Z,99.10
2017-09-12T00:06:31.321Z,99.20
2017-09-12T00:08:58.837Z,99.30
2017-09-12T00:11:26.344Z,99.50
2017-09-12T00:13:53.860Z,99.40
2017-09-12T00:16:21.364Z,98.90
2017-09-12T00:18:48.894Z,99.50
2017-09-12T00:21:17.161Z,99.80
2017-09-12T00:23:44.690Z,99.70
2017-09-12T00:26:12.192Z,99.90
2017-09-12T00:28:39.716Z,99.90
2017-09-12T00:31:07.225Z,99.90
2017-09-12T00:33:34.745Z,99.90
2017-09-12T00:36:02.264Z,99.90
2017-09-12T00:38:30.544Z,99.90
2017-09-12T00:40:58.808Z,99.90
2017-09-12T00:43:26.333Z,99.90
2017-09-12T00:45:53.841Z,99.90
2017-09-12T00:48:22.141Z,99.90
2017-09-12T00:50:49.654Z,99.90
2017-09-12T00:53:17.193Z,99.90
2017-09-12T00:55:44.695Z,99.90
2017-09-12T00:58:13.037Z,99.90
2017-09-12T01:00:40.557Z,99.90
2017-09-12T01:03:08.112Z,99.90
2017-09-12T01:05:35.647Z,99.90
2017-09-12T01:08:03.179Z,99.90
2017-09-12T01:10:30.682Z,99.90
2017-09-12T01:12:58.968Z,99.90
2017-09-12T01:15:26.474Z,99.90
2017-09-12T01:17:53.991Z,99.90
2017-09-12T01:20:21.493Z,99.90
2017-09-12T01:22:49.016Z,99.90
2017-09-12T01:25:16.517Z,99.90
2017-09-12T01:27:44.041Z,99.90
2017-09-12T01:30:11.554Z,99.90
2017-09-12T01:32:39.093Z,99.90
2017-09-12T01:35:06.623Z,99.90
2017-09-12T01:37:34.142Z,99.90
2017-09-12T01:40:01.655Z,99.90
2017-09-12T01:42:29.181Z,99.90
2017-09-12T01:44:56.689Z,99.90
2017-09-12T01:47:24.225Z,99.90
2017-09-12T01:49:52.506Z,99.90
2017-09-12T01:52:20.032Z,99.90
2017-09-12T01:54:48.297Z,99.90
2017-09-12T01:57:16.593Z,99.90
2017-09-12T01:59:44.097Z,99.90
2017-09-12T02:02:11.639Z,99.90
2017-09-12T02:04:39.145Z,99.90
2017-09-12T02:07:06.673Z,99.90
2017-09-12T02:09:34.182Z,99.90
2017-09-12T02:12:01.718Z,99.90
2017-09-12T02:14:29.235Z,99.90
2017-09-12T02:16:56.752Z,99.90
2017-09-12T02:19:25.016Z,99.90
2017-09-12T02:21:52.565Z,99.90
2017-09-12T02:24:20.080Z,99.90
2017-09-12T02:26:48.389Z,99.90
2017-09-12T02:29:16.756Z,99.90
2017-09-12T02:31:45.040Z,99.90
2017-09-12T02:34:12.549Z,99.90
2017-09-12T02:36:40.853Z,99.90
2017-09-12T02:39:08.352Z,99.90
2017-09-12T02:41:35.885Z,99.90
2017-09-12T02:44:03.383Z,99.90
2017-09-12T02:46:30.908Z,99.90
2017-09-12T02:48:58.406Z,99.90
2017-09-12T02:51:25.933Z,99.90
2017-09-12T02:53:53.436Z,99.90
2017-09-12T02:56:21.721Z,99.90
2017-09-12T02:58:49.990Z,99.90
2017-09-12T03:01:17.507Z,99.90
2017-09-12T03:03:45.013Z,99.90
2017-09-12T03:06:13.305Z,99.90
2017-09-12T03:08:40.860Z,99.90
2017-09-12T03:11:09.141Z,99.90
2017-09-12T03:13:37.415Z,99.90
2017-09-12T03:16:05.700Z,99.90
2017-09-12T03:18:33.204Z,99.90
2017-09-12T03:21:00.726Z,99.90
2017-09-12T03:23:28.224Z,99.90
2017-09-12T03:25:55.749Z,99.90
2017-09-12T03:28:23.256Z,99.90
2017-09-12T03:30:50.776Z,99.90
2017-09-12T03:33:18.275Z,99.90
2017-09-12T03:35:45.798Z,99.90
2017-09-12T03:38:13.306Z,99.90
2017-09-12T03:40:40.821Z,99.90
2017-09-12T03:43:08.324Z,99.90
2017-09-12T03:45:35.840Z,99.90
2017-09-12T03:48:03.384Z,99.90
2017-09-12T03:50:30.913Z,99.90
2017-09-12T03:52:59.182Z,99.90
2017-09-12T03:55:26.708Z,99.90
2017-09-12T03:57:54.210Z,99.90
2017-09-12T04:00:22.477Z,99.90
2017-09-12T04:02:49.984Z,99.90
2017-09-12T04:05:17.501Z,99.90
2017-09-12T04:07:45.025Z,99.90
2017-09-12T04:10:12.520Z,99.90
2017-09-12T04:12:40.820Z,99.90
2017-09-12T04:15:08.326Z,99.90
2017-09-12T04:17:35.978Z,99.90
2017-09-12T04:20:03.510Z,99.90
2017-09-12T04:22:31.061Z,99.90
2017-09-12T04:24:58.573Z,99.90
2017-09-12T04:27:26.087Z,99.90
2017-09-12T04:29:53.584Z,99.90
2017-09-12T04:32:21.115Z,99.90
2017-09-12T04:34:48.618Z,99.90
2017-09-12T04:37:16.144Z,99.90
2017-09-12T04:39:44.422Z,99.90
2017-09-12T04:42:11.941Z,99.90
2017-09-12T04:44:40.299Z,99.90
2017-09-12T04:47:07.850Z,99.90
2017-09-12T04:49:35.386Z,99.90
2017-09-12T04:52:02.947Z,99.90
2017-09-12T04:54:30.525Z,99.90
2017-09-12T04:56:58.087Z,99.90
2017-09-12T04:59:25.653Z,99.90
2017-09-12T05:01:53.209Z,99.90
2017-09-12T05:04:20.749Z,99.90
2017-09-12T05:06:48.313Z,99.90
2017-09-12T05:09:15.825Z,99.90
2017-09-12T05:11:44.290Z,99.90
2017-09-12T05:14:11.843Z,99.90
2017-09-12T05:16:39.428Z,99.90
2017-09-12T05:19:06.959Z,99.90
2017-09-12T05:21:34.505Z,99.90
2017-09-12T05:24:02.051Z,99.90
2017-09-12T05:26:29.661Z,99.90
2017-09-12T05:28:57.996Z,99.90
2017-09-12T05:31:25.571Z,99.90
2017-09-12T05:33:53.170Z,99.90
2017-09-12T05:36:21.547Z,99.90
2017-09-12T05:38:49.074Z,99.90
2017-09-12T05:41:16.633Z,99.90
2017-09-12T05:43:44.227Z,99.90
2017-09-12T05:46:11.848Z,99.90
2017-09-12T05:48:40.087Z,99.90
2017-09-12T05:51:07.735Z,99.90
2017-09-12T05:53:36.090Z,99.90
2017-09-12T05:56:03.724Z,99.90
2017-09-12T05:58:31.293Z,99.90
2017-09-12T06:00:58.836Z,99.90
2017-09-12T06:03:26.415Z,99.90
2017-09-12T06:05:53.975Z,99.90
2017-09-12T06:08:21.529Z,99.90
2017-09-12T06:10:49.064Z,99.90
2017-09-12T06:13:16.626Z,99.90
2017-09-12T06:15:44.149Z,99.90
2017-09-12T06:18:11.687Z,99.90
2017-09-12T06:20:39.204Z,99.90
2017-09-12T06:23:06.738Z,99.90
2017-09-12T06:25:35.020Z,99.90
2017-09-12T06:28:03.317Z,99.90
2017-09-12T06:30:30.856Z,99.90
2017-09-12T06:32:58.818Z,99.90
2017-09-12T06:35:26.381Z,99.90
2017-09-12T06:37:54.951Z,99.90
2017-09-12T06:40:23.241Z,99.90
2017-09-12T06:42:51.553Z,99.90
2017-09-12T06:45:19.081Z,99.90
2017-09-12T06:47:46.683Z,99.90
2017-09-12T06:50:15.037Z,99.90
2017-09-12T06:52:42.626Z,99.90
2017-09-12T06:55:10.165Z,99.90
2017-09-12T06:57:37.710Z,99.90
2017-09-12T07:00:05.986Z,99.90
2017-09-12T07:02:33.553Z,99.90
2017-09-12T07:05:01.112Z,99.90
2017-09-12T07:07:28.670Z,99.90
2017-09-12T07:09:56.944Z,99.90
2017-09-12T07:12:25.225Z,99.90
2017-09-12T07:14:53.498Z,99.90
2017-09-12T07:17:21.786Z,99.90
2017-09-12T07:19:50.049Z,99.90
2017-09-12T07:22:18.353Z,99.90
2017-09-12T07:24:45.865Z,99.90
2017-09-12T07:27:13.392Z,99.90
2017-09-12T07:29:40.902Z,99.90
2017-09-12T07:32:09.309Z,99.90
2017-09-12T07:34:36.813Z,99.90
2017-09-12T07:37:04.324Z,99.90
2017-09-12T07:39:32.593Z,99.90
2017-09-12T07:42:00.893Z,99.90
2017-09-12T07:44:28.401Z,99.90
2017-09-12T07:46:55.917Z,99.90
2017-09-12T07:49:23.510Z,99.90
2017-09-12T07:51:51.017Z,99.90
2017-09-12T07:54:18.548Z,99.90
2017-09-12T07:56:46.059Z,99.90
2017-09-12T07:59:13.825Z,99.90
2017-09-12T08:01:41.343Z,99.90
2017-09-12T08:04:09.655Z,99.90
2017-09-12T08:06:37.186Z,99.90
2017-09-12T08:09:05.334Z,99.90
2017-09-12T08:11:32.861Z,99.90
2017-09-12T08:14:00.427Z,99.90
2017-09-12T08:16:27.945Z,99.90
2017-09-12T08:18:56.266Z,99.90
2017-09-12T08:21:23.890Z,99.90
2017-09-12T08:23:51.433Z,99.90
2017-09-12T08:26:18.974Z,99.90
2017-09-12T08:28:46.510Z,99.90
2017-09-12T08:31:14.008Z,99.90
2017-09-12T08:33:42.301Z,99.90
2017-09-12T08:36:10.601Z,99.90
2017-09-12T08:38:38.123Z,99.90
2017-09-12T08:41:06.409Z,99.90
2017-09-12T08:43:33.931Z,99.90
2017-09-12T08:46:01.432Z,99.90
2017-09-12T08:48:29.724Z,99.90
2017-09-12T08:50:57.231Z,99.90
2017-09-12T08:53:24.757Z,99.90
2017-09-12T08:55:52.314Z,99.90
2017-09-12T08:58:19.838Z,99.90
2017-09-12T09:00:47.349Z,99.90
2017-09-12T09:03:14.890Z,99.90
2017-09-12T09:05:42.402Z,99.90
2017-09-12T09:08:09.938Z,99.90
2017-09-12T09:10:37.468Z,99.90
2017-09-12T09:13:05.031Z,99.90
2017-09-12T09:15:32.576Z,99.90
2017-09-12T09:18:00.122Z,99.90
2017-09-12T09:20:27.682Z,99.90
2017-09-12T09:22:55.208Z,99.50
2017-09-12T09:25:22.718Z,99.30
2017-09-12T09:27:50.283Z,98.20
2017-09-12T09:30:17.823Z,98.50
2017-09-12T09:32:46.354Z,98.30
2017-09-12T09:35:13.894Z,98.30
2017-09-12T09:37:41.449Z,98.90
2017-09-12T09:40:08.966Z,99.20
2017-09-12T09:42:36.553Z,97.70
2017-09-12T09:45:04.101Z,98.50
2017-09-12T09:47:31.829Z,97.70
2017-09-12T09:49:59.451Z,96.60
2017-09-12T09:52:27.785Z,95.60
2017-09-12T09:54:55.849Z,95.50
2017-09-12T09:57:23.401Z,95.80
2017-09-12T09:59:53.605Z,94.50
2017-09-12T10:02:21.159Z,93.80
2017-09-12T10:04:48.687Z,94.50
2017-09-12T10:07:17.753Z,91.90
2017-09-12T10:09:45.260Z,91.90
2017-09-12T10:12:12.802Z,93.40
2017-09-12T10:14:40.332Z,92.50
2017-09-12T10:17:07.889Z,93.90
2017-09-12T10:19:35.418Z,94.40
2017-09-12T10:22:02.978Z,94.80
2017-09-12T10:24:30.574Z,96.10
2017-09-12T10:26:58.128Z,95.70
2017-09-12T10:29:25.690Z,95.90
2017-09-12T10:31:53.231Z,94.80
2017-09-12T10:34:20.767Z,94.10
2017-09-12T10:36:48.305Z,93.30
2017-09-12T10:39:15.821Z,93.30
2017-09-12T10:41:43.383Z,92.80
2017-09-12T10:44:12.028Z,92.50
2017-09-12T10:46:39.570Z,92.60
2017-09-12T10:49:07.074Z,90.70
2017-09-12T10:51:34.601Z,90.50
2017-09-12T10:54:02.114Z,90.90
2017-09-12T10:56:29.641Z,92.10
2017-09-12T10:58:57.146Z,91.60
2017-09-12T11:01:25.441Z,95.20
2017-09-12T11:03:52.954Z,95.20
2017-09-12T11:06:20.499Z,96.70
2017-09-12T11:08:48.005Z,98.90
2017-09-12T11:11:16.297Z,99.90
2017-09-12T11:13:43.811Z,99.90
2017-09-12T11:16:11.344Z,99.90
2017-09-12T11:18:38.857Z,99.90
2017-09-12T11:21:07.137Z,99.10
2017-09-12T11:23:35.401Z,98.20
2017-09-12T11:26:03.726Z,97.60
2017-09-12T11:28:31.250Z,97.50
2017-09-12T11:30:58.789Z,97.60
2017-09-12T11:33:27.083Z,97.30
2017-09-12T11:35:54.662Z,97.30
2017-09-12T11:38:22.183Z,97.40
2017-09-12T11:40:49.743Z,98.00
2017-09-12T11:43:18.039Z,99.00
2017-09-12T11:45:45.577Z,99.00
2017-09-12T11:48:13.094Z,99.30
2017-09-12T11:50:40.638Z,99.00
2017-09-12T11:53:08.156Z,99.40
2017-09-12T11:55:35.735Z,99.90
2017-09-12T11:58:03.279Z,97.70
2017-09-12T12:00:31.586Z,95.90
2017-09-12T12:03:03.012Z,95.50
2017-09-12T12:05:30.541Z,98.00
2017-09-12T12:07:58.075Z,96.30
2017-09-12T12:10:25.610Z,97.20
2017-09-12T12:12:53.122Z,97.60
2017-09-12T12:15:21.402Z,97.90
2017-09-12T12:17:49.697Z,97.70
2017-09-12T12:20:17.216Z,97.70
2017-09-12T12:22:44.742Z,96.20
2017-09-12T12:25:12.349Z,95.20
2017-09-12T12:27:40.648Z,95.00
2017-09-12T12:30:08.921Z,94.40
2017-09-12T12:32:36.455Z,94.40
2017-09-12T12:35:03.978Z,94.40
2017-09-12T12:37:31.498Z,94.50
2017-09-12T12:39:59.760Z,94.10
2017-09-12T12:42:28.072Z,93.70
2017-09-12T12:44:55.595Z,93.60
2017-09-12T12:47:23.931Z,92.80
2017-09-12T12:49:51.449Z,92.80
2017-09-12T12:52:18.977Z,92.60
2017-09-12T12:54:46.486Z,92.80
2017-09-12T12:57:14.011Z,92.80
2017-09-12T12:59:42.294Z,93.60
2017-09-12T13:02:10.591Z,94.10
2017-09-12T13:04:38.094Z,94.00
2017-09-12T13:07:05.621Z,93.80
2017-09-12T13:09:33.134Z,93.20
2017-09-12T13:12:01.444Z,93.10
2017-09-12T13:14:28.985Z,93.00
2017-09-12T13:16:56.509Z,93.30
2017-09-12T13:19:24.058Z,92.50
2017-09-12T13:21:51.578Z,92.30
2017-09-12T13:24:19.082Z,92.30
2017-09-12T13:26:46.630Z,92.10
2017-09-12T13:29:14.140Z,91.80
2017-09-12T13:31:41.674Z,92.10
2017-09-12T13:34:09.938Z,92.60
2017-09-12T13:36:37.465Z,92.20
2017-09-12T13:39:04.982Z,91.30
2017-09-12T13:41:33.284Z,92.30
2017-09-12T13:44:00.793Z,92.60
2017-09-12T13:46:28.321Z,93.40
2017-09-12T13:48:55.829Z,93.40
2017-09-12T13:51:24.140Z,92.50
2017-09-12T13:53:51.650Z,92.50
2017-09-12T13:56:19.942Z,91.70
2017-09-12T13:58:47.454Z,91.30
2017-09-12T14:01:14.977Z,92.20
2017-09-12T14:03:42.480Z,91.50
2017-09-12T14:06:10.022Z,91.80
2017-09-12T14:08:37.534Z,92.10
2017-09-12T14:11:05.841Z,91.80
2017-09-12T14:13:33.355Z,91.70
2017-09-12T14:16:01.671Z,92.30
2017-09-12T14:18:29.172Z,92.30
2017-09-12T14:20:56.702Z,91.00
2017-09-12T14:23:24.352Z,92.00
2017-09-12T14:25:51.886Z,91.50
2017-09-12T14:28:19.394Z,92.10
2017-09-12T14:30:46.926Z,90.80
2017-09-12T14:33:14.441Z,91.10
2017-09-12T14:35:41.962Z,90.60
2017-09-12T14:38:09.482Z,90.50
2017-09-12T14:40:37.018Z,91.00
2017-09-12T14:43:05.299Z,92.20
2017-09-12T14:45:33.608Z,91.00
2017-09-12T14:48:01.118Z,90.90
2017-09-12T14:50:28.675Z,90.90
2017-09-12T14:52:56.180Z,90.80
2017-09-12T14:55:23.729Z,91.20
2017-09-12T14:57:51.230Z,91.30
2017-09-12T15:00:18.761Z,91.70
2017-09-12T15:02:46.284Z,92.30
2017-09-12T15:05:14.585Z,92.20
2017-09-12T15:07:42.088Z,92.20
2017-09-12T15:10:09.630Z,92.30
2017-09-12T15:12:37.139Z,92.40
2017-09-12T15:15:05.441Z,92.60
2017-09-12T15:17:32.985Z,92.50
2017-09-12T15:20:00.525Z,92.60
2017-09-12T15:22:28.801Z,92.90
2017-09-12T15:24:57.114Z,93.20
2017-09-12T15:27:24.637Z,93.20
2017-09-12T15:29:52.938Z,93.50
2017-09-12T15:32:20.477Z,93.40
2017-09-12T15:34:48.791Z,93.60
2017-09-12T15:37:16.326Z,93.50
2017-09-12T15:39:43.872Z,93.50
2017-09-12T15:42:12.181Z,93.00
2017-09-12T15:44:39.739Z,93.00
2017-09-12T15:47:07.294Z,92.90
2017-09-12T15:49:34.861Z,92.60
2017-09-12T15:52:02.475Z,92.40
2017-09-12T15:54:30.758Z,91.90
2017-09-12T15:56:59.049Z,91.70
2017-09-12T15:59:26.557Z,91.60
2017-09-12T16:01:54.081Z,91.90
2017-09-12T16:04:21.588Z,92.00
2017-09-12T16:06:49.116Z,91.60
2017-09-12T16:09:16.624Z,92.20
2017-09-12T16:11:44.926Z,93.00
2017-09-12T16:14:12.455Z,92.90
2017-09-12T16:16:40.758Z,93.40
2017-09-12T16:19:08.260Z,93.40
2017-09-12T16:21:35.805Z,93.50
2017-09-12T16:24:03.317Z,93.60
2017-09-12T16:26:31.617Z,93.50
2017-09-12T16:28:59.130Z,93.50
2017-09-12T16:31:26.653Z,93.50
2017-09-12T16:33:54.169Z,93.70
2017-09-12T16:36:22.466Z,93.80
2017-09-12T16:38:49.982Z,93.80
2017-09-12T16:41:18.308Z,94.70
2017-09-12T16:43:45.838Z,94.60
2017-09-12T16:46:13.391Z,94.40
2017-09-12T16:48:40.937Z,94.90
2017-09-12T16:51:08.484Z,94.80
2017-09-12T16:53:36.002Z,94.50
2017-09-12T16:56:03.577Z,95.10
2017-09-12T16:58:31.108Z,94.90
2017-09-12T17:00:58.678Z,95.10
2017-09-12T17:03:26.223Z,95.20
2017-09-12T17:05:54.719Z,95.20
2017-09-12T17:08:22.280Z,94.90
2017-09-12T17:10:49.833Z,94.60
2017-09-12T17:13:17.367Z,94.90
2017-09-12T17:15:44.919Z,94.60
2017-09-12T17:18:13.212Z,95.40
2017-09-12T17:20:40.779Z,95.40
2017-09-12T17:23:08.310Z,95.60
2017-09-12T17:25:36.629Z,95.90
2017-09-12T17:28:04.187Z,95.90
2017-09-12T17:30:40.260Z,96.30
2017-09-12T17:33:07.787Z,96.10
2017-09-12T17:35:35.372Z,96.30
2017-09-12T17:38:02.890Z,96.90
2017-09-12T17:40:35.386Z,97.00
2017-09-12T17:43:02.984Z,96.90
2017-09-12T17:45:30.581Z,96.80
2017-09-12T17:47:58.143Z,96.80
2017-09-12T17:50:27.926Z,97.20
2017-09-12T17:52:56.246Z,97.20
2017-09-12T17:55:24.753Z,97.20
2017-09-12T17:57:52.358Z,97.60
2017-09-12T18:00:20.127Z,97.80
2017-09-12T18:02:47.836Z,97.90
2017-09-12T18:05:16.227Z,98.40
2017-09-12T18:07:43.854Z,98.40
2017-09-12T18:10:11.469Z,98.40
2017-09-12T18:12:39.930Z,99.00
2017-09-12T18:15:07.494Z,99.00
2017-09-12T18:17:35.060Z,99.30
2017-09-12T18:20:02.686Z,99.00
2017-09-12T18:22:30.213Z,99.20
2017-09-12T18:24:57.805Z,99.40
2017-09-12T18:27:25.334Z,99.40
2017-09-12T18:29:52.914Z,99.30
2017-09-12T18:32:20.445Z,99.50
2017-09-12T18:34:48.072Z,99.90
2017-09-12T18:37:15.574Z,99.90
2017-09-12T18:39:43.890Z,99.90
2017-09-12T18:42:11.450Z,99.90
2017-09-12T18:44:48.748Z,99.90
2017-09-12T18:47:16.357Z,99.90
2017-09-12T18:49:44.687Z,99.90
2017-09-12T18:52:13.206Z,99.90
2017-09-12T18:54:41.554Z,99.90
2017-09-12T18:57:09.150Z,99.90
2017-09-12T18:59:36.722Z,99.90
2017-09-12T19:02:05.063Z,99.90
2017-09-12T19:04:34.132Z,99.90
2017-09-12T19:07:01.648Z,99.90
2017-09-12T19:09:29.974Z,99.90
2017-09-12T19:11:57.498Z,99.90
2017-09-12T19:14:25.041Z,99.90
2017-09-12T19:16:52.558Z,99.90
2017-09-12T19:19:20.114Z,99.90
2017-09-12T19:21:47.655Z,99.90
2017-09-12T19:24:15.238Z,99.90
2017-09-12T19:26:42.741Z,99.90
2017-09-12T19:29:10.270Z,99.90
2017-09-12T19:31:37.772Z,99.90
2017-09-12T19:34:05.323Z,99.90
2017-09-12T19:36:32.868Z,99.90
2017-09-12T19:39:00.433Z,99.90
2017-09-12T19:41:27.999Z,99.90
2017-09-12T19:43:55.543Z,99.90
2017-09-12T19:46:23.067Z,99.90
2017-09-12T19:48:50.658Z,99.90
2017-09-12T19:51:18.173Z,99.90
2017-09-12T19:53:45.699Z,99.90
2017-09-12T19:56:13.247Z,99.90
2017-09-12T19:58:40.781Z,99.90
2017-09-12T20:01:08.314Z,99.90
2017-09-12T20:03:35.872Z,99.90
2017-09-12T20:06:03.413Z,99.90
2017-09-12T20:08:30.945Z,99.90
2017-09-12T20:10:58.497Z,99.90
2017-09-12T20:13:26.036Z,99.90
2017-09-12T20:15:53.605Z,99.90
2017-09-12T20:18:21.133Z,99.90
2017-09-12T20:20:48.678Z,99.90
2017-09-12T20:23:16.985Z,99.90
2017-09-12T20:25:44.563Z,99.90
2017-09-12T20:28:12.119Z,99.90
2017-09-12T20:30:39.681Z,99.90
2017-09-12T20:33:07.206Z,99.90
2017-09-12T20:35:36.450Z,99.90
2017-09-12T20:38:04.012Z,99.90
2017-09-12T20:40:31.561Z,99.90
2017-09-12T20:42:59.108Z,99.90
2017-09-12T20:45:26.686Z,99.90
2017-09-12T20:47:54.233Z,99.90
2017-09-12T20:50:21.775Z,99.90
2017-09-12T20:52:49.297Z,99.90
2017-09-12T20:55:16.871Z,99.90
2017-09-12T20:57:45.194Z,99.90
2017-09-12T21:00:12.759Z,99.90
2017-09-12T21:02:40.269Z,99.90
2017-09-12T21:05:08.584Z,99.90
2017-09-12T21:07:36.136Z,99.90
2017-09-12T21:10:03.652Z,99.90
2017-09-12T21:12:31.178Z,99.90
2017-09-12T21:14:58.709Z,99.90
2017-09-12T21:17:26.258Z,99.90
2017-09-12T21:19:54.559Z,99.90
2017-09-12T21:22:22.073Z,99.90
2017-09-12T21:24:49.601Z,99.90
2017-09-12T21:27:17.200Z,99.90
2017-09-12T21:29:44.944Z,99.90
2017-09-12T21:32:12.481Z,99.90
2017-09-12T21:34:40.017Z,99.90
2017-09-12T21:37:07.535Z,99.90
2017-09-12T21:39:35.075Z,99.90
2017-09-12T21:42:02.590Z,99.90
2017-09-12T21:44:30.106Z,99.90
2017-09-12T21:46:57.836Z,99.90
2017-09-12T21:49:25.376Z,99.90
2017-09-12T21:51:52.937Z,99.90
2017-09-12T21:54:20.470Z,99.90
2017-09-12T21:56:48.016Z,99.90
2017-09-12T21:59:15.549Z,99.90
2017-09-12T22:01:43.105Z,99.90
2017-09-12T22:04:10.638Z,99.90
2017-09-12T22:06:38.217Z,99.90
2017-09-12T22:09:05.741Z,99.90
2017-09-12T22:11:34.055Z,99.90
2017-09-12T22:14:01.578Z,99.90
2017-09-12T22:16:29.926Z,99.90
2017-09-12T22:18:57.448Z,99.90
2017-09-12T22:21:24.999Z,99.90
2017-09-12T22:23:52.552Z,99.90
2017-09-12T22:26:20.108Z,99.90
2017-09-12T22:28:48.415Z,99.90
2017-09-12T22:31:15.943Z,99.90
2017-09-12T22:33:43.473Z,99.90
2017-09-12T22:36:11.020Z,99.90
2017-09-12T22:38:38.542Z,99.90
2017-09-12T22:41:06.078Z,99.90
2017-09-12T22:43:33.590Z,99.90
2017-09-12T22:46:01.139Z,99.90
2017-09-12T22:48:28.638Z,99.90
2017-09-12T22:50:56.169Z,99.90
2017-09-12T22:53:23.688Z,99.90
2017-09-12T22:55:51.233Z,99.90
2017-09-12T22:58:19.521Z,99.90
2017-09-12T23:00:47.796Z,99.90
2017-09-12T23:03:16.093Z,99.90
2017-09-12T23:05:43.622Z,99.90
2017-09-12T23:08:11.157Z,99.90
2017-09-12T23:10:38.666Z,99.90
2017-09-12T23:13:06.210Z,99.90
2017-09-12T23:15:34.516Z,99.90
2017-09-12T23:18:02.063Z,99.90
2017-09-12T23:20:29.577Z,99.90
2017-09-12T23:22:57.106Z,99.90
2017-09-12T23:25:24.618Z,99.90
2017-09-12T23:27:52.141Z,99.90
2017-09-12T23:30:19.653Z,99.90
2017-09-12T23:32:47.957Z,99.90
2017-09-12T23:35:15.470Z,99.90
2017-09-12T23:37:43.001Z,99.90
2017-09-12T23:40:10.517Z,99.90
2017-09-12T23:42:38.817Z,99.90
2017-09-12T23:45:06.324Z,99.90
2017-09-12T23:47:33.862Z,99.90
2017-09-12T23:50:01.365Z,99.90
2017-09-12T23:52:28.912Z,99.90
2017-09-12T23:54:57.193Z,99.90
2017-09-12T23:57:25.482Z,99.90
2017-09-12T23:59:53.756Z,99.90
